sensor_id;sensor_type;location;lat;lon;timestamp;P1;durP1;ratioP1;P2;durP2;ratioP2
55220;SDS011;41089;51.448;6.604;2022-12-07T00:00:38;15.55;;;12.77;;
55220;SDS011;41089;51.448;6.604;2022-12-07T00:06:39;14.15;;;12.65;;
55220;SDS011;41089;51.448;6.604;2022-12-07T00:12:41;18.73;;;15.05;;
55220;SDS011;41089;51.448;6.604;2022-12-07T00:18:44;14.57;;;13.07;;
55220;SDS011;41089;51.448;6.604;2022-12-07T00:24:44;16.42;;;13.57;;
55220;SDS011;41089;51.448;6.604;2022-12-07T00:30:46;17.63;;;14.23;;
55220;SDS011;41089;51.448;6.604;2022-12-07T00:36:48;17.27;;;14.13;;
55220;SDS011;41089;51.448;6.604;2022-12-07T00:42:49;17.73;;;14.02;;
55220;SDS011;41089;51.448;6.604;2022-12-07T00:48:50;17.70;;;13.53;;
55220;SDS011;41089;51.448;6.604;2022-12-07T00:54:51;22.23;;;14.32;;
55220;SDS011;41089;51.448;6.604;2022-12-07T01:00:52;22.55;;;15.32;;
55220;SDS011;41089;51.448;6.604;2022-12-07T01:06:53;20.27;;;14.45;;
55220;SDS011;41089;51.448;6.604;2022-12-07T01:12:55;15.88;;;14.02;;
55220;SDS011;41089;51.448;6.604;2022-12-07T01:18:56;17.07;;;13.13;;
55220;SDS011;41089;51.448;6.604;2022-12-07T01:24:57;17.27;;;13.57;;
55220;SDS011;41089;51.448;6.604;2022-12-07T01:31:02;20.23;;;15.43;;
55220;SDS011;41089;51.448;6.604;2022-12-07T01:37:03;19.73;;;13.55;;
55220;SDS011;41089;51.448;6.604;2022-12-07T01:43:11;16.05;;;12.73;;
55220;SDS011;41089;51.448;6.604;2022-12-07T01:55:22;19.00;;;13.13;;
55220;SDS011;41089;51.448;6.604;2022-12-07T02:01:23;20.13;;;14.95;;
55220;SDS011;41089;51.448;6.604;2022-12-07T02:07:23;17.35;;;12.90;;
55220;SDS011;41089;51.448;6.604;2022-12-07T02:13:25;18.85;;;13.68;;
55220;SDS011;41089;51.448;6.604;2022-12-07T02:32:21;14.75;;;12.57;;
55220;SDS011;41089;51.448;6.604;2022-12-07T02:50:49;18.98;;;14.38;;
55220;SDS011;41089;51.448;6.604;2022-12-07T03:03:00;18.40;;;12.82;;
55220;SDS011;41089;51.448;6.604;2022-12-07T03:09:13;17.98;;;13.73;;
55220;SDS011;41089;51.448;6.604;2022-12-07T03:15:22;18.63;;;13.85;;
55220;SDS011;41089;51.448;6.604;2022-12-07T03:21:26;16.52;;;12.23;;
55220;SDS011;41089;51.448;6.604;2022-12-07T03:27:32;16.92;;;13.23;;
55220;SDS011;41089;51.448;6.604;2022-12-07T03:40:13;21.50;;;14.55;;
55220;SDS011;41089;51.448;6.604;2022-12-07T03:46:20;21.77;;;14.68;;
55220;SDS011;41089;51.448;6.604;2022-12-07T03:52:45;21.15;;;14.98;;
55220;SDS011;41089;51.448;6.604;2022-12-07T03:58:50;21.85;;;14.18;;
55220;SDS011;41089;51.448;6.604;2022-12-07T04:04:52;19.02;;;13.55;;
55220;SDS011;41089;51.448;6.604;2022-12-07T04:10:52;16.35;;;14.32;;
55220;SDS011;41089;51.448;6.604;2022-12-07T04:16:56;19.20;;;13.57;;
55220;SDS011;41089;51.448;6.604;2022-12-07T04:22:58;20.48;;;14.18;;
55220;SDS011;41089;51.448;6.604;2022-12-07T04:28:58;18.27;;;12.68;;
55220;SDS011;41089;51.448;6.604;2022-12-07T04:35:01;20.77;;;12.93;;
55220;SDS011;41089;51.448;6.604;2022-12-07T04:41:05;21.17;;;12.65;;
55220;SDS011;41089;51.448;6.604;2022-12-07T04:47:06;26.13;;;14.25;;
55220;SDS011;41089;51.448;6.604;2022-12-07T04:59:13;18.83;;;11.02;;
55220;SDS011;41089;51.448;6.604;2022-12-07T05:05:21;14.68;;;10.57;;
55220;SDS011;41089;51.448;6.604;2022-12-07T05:11:23;16.88;;;10.70;;
55220;SDS011;41089;51.448;6.604;2022-12-07T05:17:41;16.35;;;10.68;;
55220;SDS011;41089;51.448;6.604;2022-12-07T05:23:48;16.77;;;11.25;;
55220;SDS011;41089;51.448;6.604;2022-12-07T05:29:49;19.58;;;11.70;;
55220;SDS011;41089;51.448;6.604;2022-12-07T05:35:51;16.85;;;10.93;;
55220;SDS011;41089;51.448;6.604;2022-12-07T05:41:52;19.65;;;9.98;;
55220;SDS011;41089;51.448;6.604;2022-12-07T05:48:11;13.95;;;9.65;;
55220;SDS011;41089;51.448;6.604;2022-12-07T05:54:15;16.40;;;9.68;;
55220;SDS011;41089;51.448;6.604;2022-12-07T06:00:17;16.20;;;10.68;;
55220;SDS011;41089;51.448;6.604;2022-12-07T06:06:29;13.05;;;10.02;;
55220;SDS011;41089;51.448;6.604;2022-12-07T06:12:31;12.75;;;10.68;;
55220;SDS011;41089;51.448;6.604;2022-12-07T06:24:55;19.35;;;10.25;;
55220;SDS011;41089;51.448;6.604;2022-12-07T06:31:00;13.85;;;9.52;;
55220;SDS011;41089;51.448;6.604;2022-12-07T06:37:01;11.50;;;9.50;;
55220;SDS011;41089;51.448;6.604;2022-12-07T06:43:03;12.95;;;10.00;;
55220;SDS011;41089;51.448;6.604;2022-12-07T06:49:05;18.70;;;10.18;;
55220;SDS011;41089;51.448;6.604;2022-12-07T06:55:06;19.92;;;10.98;;
55220;SDS011;41089;51.448;6.604;2022-12-07T07:01:17;13.07;;;10.65;;
55220;SDS011;41089;51.448;6.604;2022-12-07T07:07:21;16.77;;;10.07;;
55220;SDS011;41089;51.448;6.604;2022-12-07T07:13:25;15.48;;;9.90;;
55220;SDS011;41089;51.448;6.604;2022-12-07T07:19:26;14.57;;;10.32;;
55220;SDS011;41089;51.448;6.604;2022-12-07T07:25:34;13.48;;;8.90;;
55220;SDS011;41089;51.448;6.604;2022-12-07T07:31:43;17.25;;;10.23;;
55220;SDS011;41089;51.448;6.604;2022-12-07T07:37:43;15.70;;;9.68;;
55220;SDS011;41089;51.448;6.604;2022-12-07T07:43:49;19.15;;;10.90;;
55220;SDS011;41089;51.448;6.604;2022-12-07T07:49:51;18.02;;;11.00;;
55220;SDS011;41089;51.448;6.604;2022-12-07T07:55:55;16.55;;;9.88;;
55220;SDS011;41089;51.448;6.604;2022-12-07T08:01:56;18.70;;;10.88;;
55220;SDS011;41089;51.448;6.604;2022-12-07T08:07:57;17.42;;;9.40;;
55220;SDS011;41089;51.448;6.604;2022-12-07T08:13:57;13.65;;;9.13;;
55220;SDS011;41089;51.448;6.604;2022-12-07T08:19:58;13.03;;;9.47;;
55220;SDS011;41089;51.448;6.604;2022-12-07T08:26:02;16.40;;;9.77;;
55220;SDS011;41089;51.448;6.604;2022-12-07T08:32:03;18.27;;;10.65;;
55220;SDS011;41089;51.448;6.604;2022-12-07T08:38:04;12.67;;;8.83;;
55220;SDS011;41089;51.448;6.604;2022-12-07T08:44:04;14.93;;;10.70;;
55220;SDS011;41089;51.448;6.604;2022-12-07T08:50:05;15.18;;;10.43;;
55220;SDS011;41089;51.448;6.604;2022-12-07T08:56:08;12.80;;;8.52;;
55220;SDS011;41089;51.448;6.604;2022-12-07T09:02:08;13.63;;;7.80;;
55220;SDS011;41089;51.448;6.604;2022-12-07T09:08:10;13.75;;;8.18;;
55220;SDS011;41089;51.448;6.604;2022-12-07T09:14:11;14.18;;;7.68;;
55220;SDS011;41089;51.448;6.604;2022-12-07T09:20:12;15.18;;;8.65;;
55220;SDS011;41089;51.448;6.604;2022-12-07T09:26:13;9.48;;;7.45;;
55220;SDS011;41089;51.448;6.604;2022-12-07T09:32:13;16.20;;;7.40;;
55220;SDS011;41089;51.448;6.604;2022-12-07T09:38:14;14.05;;;7.22;;
55220;SDS011;41089;51.448;6.604;2022-12-07T09:44:20;11.50;;;7.28;;
55220;SDS011;41089;51.448;6.604;2022-12-07T09:50:24;14.27;;;6.80;;
55220;SDS011;41089;51.448;6.604;2022-12-07T09:56:28;13.00;;;6.50;;
55220;SDS011;41089;51.448;6.604;2022-12-07T10:02:34;11.38;;;5.95;;
55220;SDS011;41089;51.448;6.604;2022-12-07T10:08:38;9.48;;;5.65;;
55220;SDS011;41089;51.448;6.604;2022-12-07T10:14:59;11.98;;;6.07;;
55220;SDS011;41089;51.448;6.604;2022-12-07T10:21:04;9.90;;;5.95;;
55220;SDS011;41089;51.448;6.604;2022-12-07T10:27:29;9.00;;;4.75;;
55220;SDS011;41089;51.448;6.604;2022-12-07T11:17:13;10.82;;;4.68;;
55220;SDS011;41089;51.448;6.604;2022-12-07T11:36:17;7.88;;;3.65;;
55220;SDS011;41089;51.448;6.604;2022-12-07T11:42:26;11.00;;;4.05;;
55220;SDS011;41089;51.448;6.604;2022-12-07T11:48:32;9.85;;;3.65;;
55220;SDS011;41089;51.448;6.604;2022-12-07T11:54:35;6.47;;;3.50;;
55220;SDS011;41089;51.448;6.604;2022-12-07T12:00:41;7.78;;;3.42;;
55220;SDS011;41089;51.448;6.604;2022-12-07T12:06:42;9.52;;;3.55;;
55220;SDS011;41089;51.448;6.604;2022-12-07T12:12:50;7.90;;;3.22;;
55220;SDS011;41089;51.448;6.604;2022-12-07T12:25:02;5.18;;;2.60;;
55220;SDS011;41089;51.448;6.604;2022-12-07T12:31:15;10.23;;;3.72;;
55220;SDS011;41089;51.448;6.604;2022-12-07T12:43:50;10.40;;;3.90;;
55220;SDS011;41089;51.448;6.604;2022-12-07T12:50:10;12.48;;;4.40;;
55220;SDS011;41089;51.448;6.604;2022-12-07T13:02:38;9.07;;;3.47;;
55220;SDS011;41089;51.448;6.604;2022-12-07T13:08:47;6.47;;;3.17;;
55220;SDS011;41089;51.448;6.604;2022-12-07T13:14:53;8.53;;;3.00;;
55220;SDS011;41089;51.448;6.604;2022-12-07T13:27:07;5.82;;;2.20;;
55220;SDS011;41089;51.448;6.604;2022-12-07T13:33:08;10.43;;;3.33;;
55220;SDS011;41089;51.448;6.604;2022-12-07T13:39:19;8.82;;;2.80;;
55220;SDS011;41089;51.448;6.604;2022-12-07T13:45:30;6.93;;;2.50;;
55220;SDS011;41089;51.448;6.604;2022-12-07T13:51:50;7.55;;;2.30;;
55220;SDS011;41089;51.448;6.604;2022-12-07T13:57:52;6.45;;;2.20;;
55220;SDS011;41089;51.448;6.604;2022-12-07T14:03:54;4.47;;;1.77;;
55220;SDS011;41089;51.448;6.604;2022-12-07T14:10:02;5.40;;;2.63;;
55220;SDS011;41089;51.448;6.604;2022-12-07T14:16:18;4.60;;;2.37;;
55220;SDS011;41089;51.448;6.604;2022-12-07T14:28:35;13.90;;;5.60;;
55220;SDS011;41089;51.448;6.604;2022-12-07T14:34:36;14.48;;;4.40;;
55220;SDS011;41089;51.448;6.604;2022-12-07T14:40:37;7.40;;;2.75;;
55220;SDS011;41089;51.448;6.604;2022-12-07T14:46:38;10.55;;;3.45;;
55220;SDS011;41089;51.448;6.604;2022-12-07T14:52:38;8.88;;;3.05;;
55220;SDS011;41089;51.448;6.604;2022-12-07T14:58:39;8.93;;;3.63;;
55220;SDS011;41089;51.448;6.604;2022-12-07T15:04:40;8.90;;;3.50;;
55220;SDS011;41089;51.448;6.604;2022-12-07T15:10:40;9.30;;;3.90;;
55220;SDS011;41089;51.448;6.604;2022-12-07T15:16:41;8.70;;;3.37;;
55220;SDS011;41089;51.448;6.604;2022-12-07T15:22:42;7.82;;;3.10;;
55220;SDS011;41089;51.448;6.604;2022-12-07T15:28:43;6.80;;;3.00;;
55220;SDS011;41089;51.448;6.604;2022-12-07T15:34:43;10.23;;;3.47;;
55220;SDS011;41089;51.448;6.604;2022-12-07T15:40:46;12.85;;;4.03;;
55220;SDS011;41089;51.448;6.604;2022-12-07T15:46:46;9.90;;;3.72;;
55220;SDS011;41089;51.448;6.604;2022-12-07T15:52:47;11.40;;;4.80;;
55220;SDS011;41089;51.448;6.604;2022-12-07T15:58:48;7.22;;;3.67;;
55220;SDS011;41089;51.448;6.604;2022-12-07T16:04:48;11.20;;;4.37;;
55220;SDS011;41089;51.448;6.604;2022-12-07T16:10:51;10.63;;;4.28;;
55220;SDS011;41089;51.448;6.604;2022-12-07T16:16:51;8.35;;;4.88;;
55220;SDS011;41089;51.448;6.604;2022-12-07T16:22:52;7.38;;;5.07;;
55220;SDS011;41089;51.448;6.604;2022-12-07T16:28:54;10.40;;;3.03;;
55220;SDS011;41089;51.448;6.604;2022-12-07T16:35:05;9.23;;;3.45;;
55220;SDS011;41089;51.448;6.604;2022-12-07T16:41:14;9.52;;;3.53;;
55220;SDS011;41089;51.448;6.604;2022-12-07T16:47:15;6.50;;;3.17;;
55220;SDS011;41089;51.448;6.604;2022-12-07T16:53:15;8.67;;;3.83;;
55220;SDS011;41089;51.448;6.604;2022-12-07T16:59:16;8.77;;;3.47;;
55220;SDS011;41089;51.448;6.604;2022-12-07T17:05:16;7.53;;;3.43;;
55220;SDS011;41089;51.448;6.604;2022-12-07T17:11:26;9.50;;;3.80;;
55220;SDS011;41089;51.448;6.604;2022-12-07T17:17:28;7.60;;;4.13;;
55220;SDS011;41089;51.448;6.604;2022-12-07T17:23:29;4.33;;;3.00;;
55220;SDS011;41089;51.448;6.604;2022-12-07T17:29:30;5.00;;;3.10;;
55220;SDS011;41089;51.448;6.604;2022-12-07T17:35:30;8.75;;;3.72;;
55220;SDS011;41089;51.448;6.604;2022-12-07T17:41:31;8.10;;;3.83;;
55220;SDS011;41089;51.448;6.604;2022-12-07T17:47:49;8.63;;;4.10;;
55220;SDS011;41089;51.448;6.604;2022-12-07T17:53:51;9.23;;;3.87;;
55220;SDS011;41089;51.448;6.604;2022-12-07T17:59:51;6.57;;;4.13;;
55220;SDS011;41089;51.448;6.604;2022-12-07T18:05:54;7.03;;;5.53;;
55220;SDS011;41089;51.448;6.604;2022-12-07T18:11:54;10.23;;;5.28;;
55220;SDS011;41089;51.448;6.604;2022-12-07T18:17:55;7.63;;;4.50;;
55220;SDS011;41089;51.448;6.604;2022-12-07T18:23:57;8.45;;;4.78;;
55220;SDS011;41089;51.448;6.604;2022-12-07T18:30:01;7.00;;;4.93;;
55220;SDS011;41089;51.448;6.604;2022-12-07T18:36:02;11.90;;;6.13;;
55220;SDS011;41089;51.448;6.604;2022-12-07T18:42:03;11.60;;;5.50;;
55220;SDS011;41089;51.448;6.604;2022-12-07T18:48:03;10.45;;;6.22;;
55220;SDS011;41089;51.448;6.604;2022-12-07T18:54:04;9.95;;;5.57;;
55220;SDS011;41089;51.448;6.604;2022-12-07T19:00:05;15.27;;;5.90;;
55220;SDS011;41089;51.448;6.604;2022-12-07T19:06:08;8.10;;;4.93;;
55220;SDS011;41089;51.448;6.604;2022-12-07T19:12:12;6.88;;;5.50;;
55220;SDS011;41089;51.448;6.604;2022-12-07T19:18:12;11.90;;;6.50;;
55220;SDS011;41089;51.448;6.604;2022-12-07T19:24:13;9.48;;;7.45;;
55220;SDS011;41089;51.448;6.604;2022-12-07T19:30:14;11.35;;;8.30;;
55220;SDS011;41089;51.448;6.604;2022-12-07T19:36:14;13.63;;;10.60;;
55220;SDS011;41089;51.448;6.604;2022-12-07T19:42:16;16.10;;;12.37;;
55220;SDS011;41089;51.448;6.604;2022-12-07T19:48:16;16.85;;;10.48;;
55220;SDS011;41089;51.448;6.604;2022-12-07T19:54:18;15.00;;;9.05;;
55220;SDS011;41089;51.448;6.604;2022-12-07T20:00:20;13.10;;;9.50;;
55220;SDS011;41089;51.448;6.604;2022-12-07T20:06:21;10.45;;;8.52;;
55220;SDS011;41089;51.448;6.604;2022-12-07T20:12:22;9.70;;;8.00;;
55220;SDS011;41089;51.448;6.604;2022-12-07T20:18:41;13.05;;;8.43;;
55220;SDS011;41089;51.448;6.604;2022-12-07T20:24:42;13.27;;;9.13;;
55220;SDS011;41089;51.448;6.604;2022-12-07T20:30:46;11.40;;;8.70;;
55220;SDS011;41089;51.448;6.604;2022-12-07T20:36:47;16.95;;;10.20;;
55220;SDS011;41089;51.448;6.604;2022-12-07T20:42:48;12.73;;;10.02;;
55220;SDS011;41089;51.448;6.604;2022-12-07T20:48:48;16.30;;;10.97;;
55220;SDS011;41089;51.448;6.604;2022-12-07T20:54:49;17.65;;;11.23;;
55220;SDS011;41089;51.448;6.604;2022-12-07T21:00:49;18.90;;;11.52;;
55220;SDS011;41089;51.448;6.604;2022-12-07T21:06:50;19.27;;;11.40;;
55220;SDS011;41089;51.448;6.604;2022-12-07T21:12:50;15.55;;;11.40;;
55220;SDS011;41089;51.448;6.604;2022-12-07T21:18:51;16.45;;;11.20;;
55220;SDS011;41089;51.448;6.604;2022-12-07T21:24:52;15.77;;;11.07;;
55220;SDS011;41089;51.448;6.604;2022-12-07T21:30:56;14.97;;;10.73;;
55220;SDS011;41089;51.448;6.604;2022-12-07T21:36:57;15.43;;;10.63;;
55220;SDS011;41089;51.448;6.604;2022-12-07T21:42:58;17.52;;;10.55;;
55220;SDS011;41089;51.448;6.604;2022-12-07T21:48:59;11.73;;;10.50;;
55220;SDS011;41089;51.448;6.604;2022-12-07T21:55:01;14.45;;;9.93;;
55220;SDS011;41089;51.448;6.604;2022-12-07T22:01:01;13.07;;;8.77;;
55220;SDS011;41089;51.448;6.604;2022-12-07T22:07:02;10.47;;;7.53;;
55220;SDS011;41089;51.448;6.604;2022-12-07T22:13:02;10.90;;;7.90;;
55220;SDS011;41089;51.448;6.604;2022-12-07T22:19:02;14.20;;;9.07;;
55220;SDS011;41089;51.448;6.604;2022-12-07T22:25:03;12.00;;;10.20;;
55220;SDS011;41089;51.448;6.604;2022-12-07T22:31:05;14.75;;;10.52;;
55220;SDS011;41089;51.448;6.604;2022-12-07T22:37:07;14.93;;;11.98;;
55220;SDS011;41089;51.448;6.604;2022-12-07T22:43:07;20.95;;;14.10;;
55220;SDS011;41089;51.448;6.604;2022-12-07T22:49:08;13.80;;;11.50;;
55220;SDS011;41089;51.448;6.604;2022-12-07T22:55:09;19.83;;;13.50;;
55220;SDS011;41089;51.448;6.604;2022-12-07T23:01:11;19.10;;;13.02;;
55220;SDS011;41089;51.448;6.604;2022-12-07T23:07:12;18.17;;;12.23;;
55220;SDS011;41089;51.448;6.604;2022-12-07T23:13:14;17.20;;;12.77;;
55220;SDS011;41089;51.448;6.604;2022-12-07T23:19:31;18.25;;;12.77;;
55220;SDS011;41089;51.448;6.604;2022-12-07T23:25:32;17.40;;;13.65;;
55220;SDS011;41089;51.448;6.604;2022-12-07T23:31:32;14.75;;;11.75;;
55220;SDS011;41089;51.448;6.604;2022-12-07T23:37:32;13.65;;;11.40;;
55220;SDS011;41089;51.448;6.604;2022-12-07T23:43:34;15.53;;;12.40;;
55220;SDS011;41089;51.448;6.604;2022-12-07T23:49:34;16.08;;;12.65;;
55220;SDS011;41089;51.448;6.604;2022-12-07T23:55:35;17.00;;;10.77;;
